sensor_id;sensor_type;location;lat;lon;timestamp;pressure;altitude;pressure_sealevel;temperature;humidity
13420;BME280;6781;58.440;15.470;2024-03-02T00:00:50;105214.31;;;3.51;100.00
13420;BME280;6781;58.440;15.470;2024-03-02T00:03:17;105214.41;;;3.54;100.00
13420;BME280;6781;58.440;15.470;2024-03-02T00:05:44;105224.81;;;3.60;100.00
13420;BME280;6781;58.440;15.470;2024-03-02T00:08:15;105216.22;;;3.58;100.00
13420;BME280;6781;58.440;15.470;2024-03-02T00:10:50;105203.97;;;3.46;100.00
13420;BME280;6781;58.440;15.470;2024-03-02T00:13:19;105203.94;;;3.45;100.00
13420;BME280;6781;58.440;15.470;2024-03-02T00:15:48;105207.38;;;3.47;100.00
13420;BME280;6781;58.440;15.470;2024-03-02T00:18:18;105227.31;;;3.57;100.00
13420;BME280;6781;58.440;15.470;2024-03-02T00:20:45;105241.00;;;3.57;100.00
13420;BME280;6781;58.440;15.470;2024-03-02T00:23:14;105247.09;;;3.61;100.00
13420;BME280;6781;58.440;15.470;2024-03-02T00:25:43;105243.63;;;3.59;100.00
13420;BME280;6781;58.440;15.470;2024-03-02T00:28:19;105255.63;;;3.60;100.00
13420;BME280;6781;58.440;15.470;2024-03-02T00:30:51;105264.25;;;3.62;100.00
13420;BME280;6781;58.440;15.470;2024-03-02T00:33:18;105276.38;;;3.68;100.00
13420;BME280;6781;58.440;15.470;2024-03-02T00:35:46;105281.47;;;3.66;100.00
13420;BME280;6781;58.440;15.470;2024-03-02T00:38:13;105281.50;;;3.68;100.00
13420;BME280;6781;58.440;15.470;2024-03-02T00:40:41;105293.56;;;3.70;100.00
13420;BME280;6781;58.440;15.470;2024-03-02T00:43:11;105291.72;;;3.66;100.00
13420;BME280;6781;58.440;15.470;2024-03-02T00:45:47;105309.00;;;3.72;100.00
13420;BME280;6781;58.440;15.470;2024-03-02T00:48:14;105327.84;;;3.72;100.00
13420;BME280;6781;58.440;15.470;2024-03-02T00:50:42;105326.09;;;3.71;100.00
13420;BME280;6781;58.440;15.470;2024-03-02T00:53:10;105340.81;;;3.77;100.00
13420;BME280;6781;58.440;15.470;2024-03-02T00:55:38;105350.22;;;3.76;100.00
13420;BME280;6781;58.440;15.470;2024-03-02T00:58:09;105351.78;;;3.71;100.00
13420;BME280;6781;58.440;15.470;2024-03-02T01:00:36;105372.66;;;3.83;100.00
13420;BME280;6781;58.440;15.470;2024-03-02T01:03:04;105352.78;;;3.76;100.00
13420;BME280;6781;58.440;15.470;2024-03-02T01:05:33;105364.72;;;3.74;100.00
13420;BME280;6781;58.440;15.470;2024-03-02T01:08:00;105371.72;;;3.80;100.00
13420;BME280;6781;58.440;15.470;2024-03-02T01:10:28;105355.25;;;3.73;100.00
13420;BME280;6781;58.440;15.470;2024-03-02T01:12:55;105353.53;;;3.72;100.00
13420;BME280;6781;58.440;15.470;2024-03-02T01:15:22;105355.94;;;3.66;100.00
13420;BME280;6781;58.440;15.470;2024-03-02T01:17:49;105359.38;;;3.67;100.00
13420;BME280;6781;58.440;15.470;2024-03-02T01:20:17;105363.47;;;3.60;100.00
13420;BME280;6781;58.440;15.470;2024-03-02T01:22:44;105379.03;;;3.66;100.00
13420;BME280;6781;58.440;15.470;2024-03-02T01:25:11;105389.31;;;3.66;100.00
13420;BME280;6781;58.440;15.470;2024-03-02T01:27:38;105411.66;;;3.70;100.00
13420;BME280;6781;58.440;15.470;2024-03-02T01:30:06;105403.75;;;3.63;100.00
13420;BME280;6781;58.440;15.470;2024-03-02T01:32:33;105416.72;;;3.67;100.00
13420;BME280;6781;58.440;15.470;2024-03-02T01:34:59;105413.16;;;3.62;100.00
13420;BME280;6781;58.440;15.470;2024-03-02T01:37:28;105408.78;;;3.59;100.00
13420;BME280;6781;58.440;15.470;2024-03-02T01:39:55;105420.84;;;3.62;100.00
13420;BME280;6781;58.440;15.470;2024-03-02T01:42:21;105410.28;;;3.51;100.00
13420;BME280;6781;58.440;15.470;2024-03-02T01:44:48;105424.03;;;3.53;100.00
13420;BME280;6781;58.440;15.470;2024-03-02T01:47:16;105431.03;;;3.59;100.00
13420;BME280;6781;58.440;15.470;2024-03-02T01:49:42;105413.53;;;3.44;100.00
13420;BME280;6781;58.440;15.470;2024-03-02T01:52:09;105422.97;;;3.47;100.00
13420;BME280;6781;58.440;15.470;2024-03-02T01:54:38;105418.56;;;3.41;100.00
13420;BME280;6781;58.440;15.470;2024-03-02T01:57:05;105424.72;;;3.48;100.00
13420;BME280;6781;58.440;15.470;2024-03-02T01:59:32;105415.94;;;3.40;100.00
13420;BME280;6781;58.440;15.470;2024-03-02T02:01:58;105422.91;;;3.44;100.00
13420;BME280;6781;58.440;15.470;2024-03-02T02:04:26;105431.41;;;3.41;100.00
13420;BME280;6781;58.440;15.470;2024-03-02T02:06:54;105425.25;;;3.36;100.00
13420;BME280;6781;58.440;15.470;2024-03-02T02:09:22;105443.31;;;3.39;100.00
13420;BME280;6781;58.440;15.470;2024-03-02T02:11:51;105465.72;;;3.45;100.00
13420;BME280;6781;58.440;15.470;2024-03-02T02:14:20;105464.91;;;3.47;100.00
13420;BME280;6781;58.440;15.470;2024-03-02T02:16:58;105475.16;;;3.46;100.00
13420;BME280;6781;58.440;15.470;2024-03-02T02:19:25;105480.25;;;3.44;100.00
13420;BME280;6781;58.440;15.470;2024-03-02T02:21:54;105475.13;;;3.44;100.00
13420;BME280;6781;58.440;15.470;2024-03-02T02:24:20;105487.25;;;3.50;100.00
13420;BME280;6781;58.440;15.470;2024-03-02T02:26:47;105486.91;;;3.38;100.00
13420;BME280;6781;58.440;15.470;2024-03-02T02:29:14;105489.47;;;3.38;100.00
13420;BME280;6781;58.440;15.470;2024-03-02T02:31:44;105525.50;;;3.41;100.00
13420;BME280;6781;58.440;15.470;2024-03-02T02:34:11;105522.78;;;3.36;100.00
13420;BME280;6781;58.440;15.470;2024-03-02T02:36:38;105542.53;;;3.39;100.00
13420;BME280;6781;58.440;15.470;2024-03-02T02:39:07;105554.69;;;3.44;100.00
13420;BME280;6781;58.440;15.470;2024-03-02T02:41:36;105542.53;;;3.39;100.00
13420;BME280;6781;58.440;15.470;2024-03-02T02:44:02;105562.34;;;3.43;100.00
13420;BME280;6781;58.440;15.470;2024-03-02T02:46:29;105577.88;;;3.47;100.00
13420;BME280;6781;58.440;15.470;2024-03-02T02:48:56;105586.53;;;3.51;100.00
13420;BME280;6781;58.440;15.470;2024-03-02T02:51:24;105573.25;;;3.36;100.00
13420;BME280;6781;58.440;15.470;2024-03-02T02:53:53;105576.63;;;3.35;100.00
13420;BME280;6781;58.440;15.470;2024-03-02T02:56:21;105584.53;;;3.41;100.00
13420;BME280;6781;58.440;15.470;2024-03-02T02:58:48;105600.69;;;3.38;100.00
13420;BME280;6781;58.440;15.470;2024-03-02T03:04:08;105648.59;;;3.38;100.00
13420;BME280;6781;58.440;15.470;2024-03-02T03:06:35;105670.88;;;3.39;100.00
13420;BME280;6781;58.440;15.470;2024-03-02T03:09:16;105698.50;;;3.46;100.00
13420;BME280;6781;58.440;15.470;2024-03-02T03:11:45;105691.50;;;3.42;100.00
13420;BME280;6781;58.440;15.470;2024-03-02T03:14:11;105692.38;;;3.42;100.00
13420;BME280;6781;58.440;15.470;2024-03-02T03:16:38;105699.97;;;3.39;100.00
13420;BME280;6781;58.440;15.470;2024-03-02T03:19:05;105720.56;;;3.41;100.00
13420;BME280;6781;58.440;15.470;2024-03-02T03:21:33;105723.97;;;3.40;100.00
13420;BME280;6781;58.440;15.470;2024-03-02T03:24:03;105719.44;;;3.33;100.00
13420;BME280;6781;58.440;15.470;2024-03-02T03:26:30;105718.41;;;3.28;100.00
13420;BME280;6781;58.440;15.470;2024-03-02T03:29:01;105719.94;;;3.22;100.00
13420;BME280;6781;58.440;15.470;2024-03-02T03:31:30;105732.59;;;3.18;100.00
13420;BME280;6781;58.440;15.470;2024-03-02T03:33:58;105733.34;;;3.15;100.00
13420;BME280;6781;58.440;15.470;2024-03-02T03:36:25;105754.06;;;3.20;100.00
13420;BME280;6781;58.440;15.470;2024-03-02T03:38:59;105753.19;;;3.19;100.00
13420;BME280;6781;58.440;15.470;2024-03-02T03:41:31;105773.00;;;3.23;100.00
13420;BME280;6781;58.440;15.470;2024-03-02T03:44:00;105789.44;;;3.29;100.00
13420;BME280;6781;58.440;15.470;2024-03-02T03:46:27;105775.41;;;3.19;100.00
13420;BME280;6781;58.440;15.470;2024-03-02T03:48:57;105790.03;;;3.21;100.00
13420;BME280;6781;58.440;15.470;2024-03-02T03:51:24;105790.91;;;3.22;100.00
13420;BME280;6781;58.440;15.470;2024-03-02T03:53:52;105806.34;;;3.23;100.00
13420;BME280;6781;58.440;15.470;2024-03-02T03:56:20;105835.47;;;3.24;100.00
13420;BME280;6781;58.440;15.470;2024-03-02T03:58:47;105853.66;;;3.30;100.00
13420;BME280;6781;58.440;15.470;2024-03-02T04:01:15;105857.16;;;3.32;100.00
13420;BME280;6781;58.440;15.470;2024-03-02T04:03:42;105871.72;;;3.33;100.00
13420;BME280;6781;58.440;15.470;2024-03-02T04:06:10;105890.69;;;3.37;100.00
13420;BME280;6781;58.440;15.470;2024-03-02T04:08:39;105898.03;;;3.28;100.00
13420;BME280;6781;58.440;15.470;2024-03-02T04:11:06;105905.97;;;3.34;100.00
13420;BME280;6781;58.440;15.470;2024-03-02T04:13:34;105920.56;;;3.35;100.00
13420;BME280;6781;58.440;15.470;2024-03-02T04:16:01;105940.84;;;3.29;100.00
13420;BME280;6781;58.440;15.470;2024-03-02T04:18:32;105982.91;;;3.32;100.00
13420;BME280;6781;58.440;15.470;2024-03-02T04:21:00;105992.31;;;3.32;100.00
13420;BME280;6781;58.440;15.470;2024-03-02T04:23:28;106001.06;;;3.37;100.00
13420;BME280;6781;58.440;15.470;2024-03-02T04:25:55;106001.06;;;3.37;100.00
13420;BME280;6781;58.440;15.470;2024-03-02T04:28:22;106014.84;;;3.39;100.00
13420;BME280;6781;58.440;15.470;2024-03-02T04:30:49;106024.22;;;3.38;100.00
13420;BME280;6781;58.440;15.470;2024-03-02T04:33:16;106012.09;;;3.34;100.00
13420;BME280;6781;58.440;15.470;2024-03-02T04:35:46;106010.34;;;3.33;100.00
13420;BME280;6781;58.440;15.470;2024-03-02T04:38:13;106017.09;;;3.31;100.00
13420;BME280;6781;58.440;15.470;2024-03-02T04:40:40;106016.22;;;3.31;100.00
13420;BME280;6781;58.440;15.470;2024-03-02T04:43:07;106029.88;;;3.30;100.00
13420;BME280;6781;58.440;15.470;2024-03-02T04:45:39;106034.25;;;3.32;100.00
13420;BME280;6781;58.440;15.470;2024-03-02T04:48:07;106047.09;;;3.32;100.00
13420;BME280;6781;58.440;15.470;2024-03-02T04:50:34;106047.13;;;3.34;100.00
13420;BME280;6781;58.440;15.470;2024-03-02T04:53:03;106061.84;;;3.38;100.00
13420;BME280;6781;58.440;15.470;2024-03-02T04:55:36;106073.69;;;3.34;100.00
13420;BME280;6781;58.440;15.470;2024-03-02T04:58:35;106100.97;;;3.32;100.00
13420;BME280;6781;58.440;15.470;2024-03-02T05:01:03;106124.28;;;3.37;100.00
13420;BME280;6781;58.440;15.470;2024-03-02T05:03:30;106129.41;;;3.37;100.00
13420;BME280;6781;58.440;15.470;2024-03-02T05:05:59;106138.66;;;3.33;100.00
13420;BME280;6781;58.440;15.470;2024-03-02T05:08:29;106170.41;;;3.35;100.00
13420;BME280;6781;58.440;15.470;2024-03-02T05:10:56;106171.22;;;3.34;100.00
13420;BME280;6781;58.440;15.470;2024-03-02T05:13:44;106196.03;;;3.34;100.00
13420;BME280;6781;58.440;15.470;2024-03-02T05:16:11;106197.66;;;3.32;100.00
13420;BME280;6781;58.440;15.470;2024-03-02T05:18:38;106216.56;;;3.34;100.00
13420;BME280;6781;58.440;15.470;2024-03-02T05:21:06;106218.19;;;3.32;100.00
13420;BME280;6781;58.440;15.470;2024-03-02T05:23:35;106216.16;;;3.24;100.00
13420;BME280;6781;58.440;15.470;2024-03-02T05:26:03;106276.00;;;3.23;100.00
13420;BME280;6781;58.440;15.470;2024-03-02T05:28:32;106277.47;;;3.18;100.00
13420;BME280;6781;58.440;15.470;2024-03-02T05:30:59;106287.00;;;3.21;100.00
13420;BME280;6781;58.440;15.470;2024-03-02T05:33:26;106294.63;;;3.19;100.00
13420;BME280;6781;58.440;15.470;2024-03-02T05:35:53;106304.91;;;3.19;100.00
13420;BME280;6781;58.440;15.470;2024-03-02T05:38:20;106298.63;;;3.13;100.00
13420;BME280;6781;58.440;15.470;2024-03-02T05:40:50;106295.84;;;3.08;100.00
13420;BME280;6781;58.440;15.470;2024-03-02T05:43:17;106301.63;;;3.04;100.00
13420;BME280;6781;58.440;15.470;2024-03-02T05:45:45;106322.84;;;3.00;100.00
13420;BME280;6781;58.440;15.470;2024-03-02T05:48:12;106345.13;;;3.01;100.00
13420;BME280;6781;58.440;15.470;2024-03-02T05:50:39;106356.31;;;3.03;100.00
13420;BME280;6781;58.440;15.470;2024-03-02T05:53:06;106371.50;;;2.99;100.00
13420;BME280;6781;58.440;15.470;2024-03-02T05:55:34;106383.53;;;3.00;100.00
13420;BME280;6781;58.440;15.470;2024-03-02T05:58:03;106387.63;;;2.96;100.00
13420;BME280;6781;58.440;15.470;2024-03-02T06:00:47;106403.03;;;2.96;100.00
13420;BME280;6781;58.440;15.470;2024-03-02T06:03:15;106396.13;;;2.95;100.00
13420;BME280;6781;58.440;15.470;2024-03-02T06:05:42;106408.44;;;3.02;100.00
13420;BME280;6781;58.440;15.470;2024-03-02T06:08:10;106412.63;;;3.00;100.00
13420;BME280;6781;58.440;15.470;2024-03-02T06:10:37;106436.97;;;3.08;100.00
13420;BME280;6781;58.440;15.470;2024-03-02T06:13:06;106431.75;;;3.07;100.00
13420;BME280;6781;58.440;15.470;2024-03-02T06:15:33;106429.13;;;3.05;100.00
13420;BME280;6781;58.440;15.470;2024-03-02T06:18:01;106448.91;;;3.08;100.00
13420;BME280;6781;58.440;15.470;2024-03-02T06:20:28;106471.44;;;3.13;100.00
13420;BME280;6781;58.440;15.470;2024-03-02T06:22:56;106489.53;;;3.16;100.00
13420;BME280;6781;58.440;15.470;2024-03-02T06:25:24;106506.53;;;3.14;100.00
13420;BME280;6781;58.440;15.470;2024-03-02T06:27:51;106520.41;;;3.18;100.00
13420;BME280;6781;58.440;15.470;2024-03-02T06:30:20;106525.63;;;3.19;100.00
13420;BME280;6781;58.440;15.470;2024-03-02T06:32:47;106541.91;;;3.20;100.00
13420;BME280;6781;58.440;15.470;2024-03-02T06:35:14;106558.19;;;3.20;100.00
13420;BME280;6781;58.440;15.470;2024-03-02T06:37:41;106582.38;;;3.25;100.00
13420;BME280;6781;58.440;15.470;2024-03-02T06:40:11;106596.31;;;3.31;100.00
13420;BME280;6781;58.440;15.470;2024-03-02T06:42:41;106626.25;;;3.30;100.00
13420;BME280;6781;58.440;15.470;2024-03-02T06:45:16;106652.16;;;3.35;100.00
13420;BME280;6781;58.440;15.470;2024-03-02T06:47:45;106645.91;;;3.30;100.00
13420;BME280;6781;58.440;15.470;2024-03-02T06:50:14;106664.97;;;3.35;100.00
13420;BME280;6781;58.440;15.470;2024-03-02T06:52:41;106675.31;;;3.36;100.00
13420;BME280;6781;58.440;15.470;2024-03-02T06:55:08;106682.81;;;3.32;100.00
13420;BME280;6781;58.440;15.470;2024-03-02T06:57:41;106712.22;;;3.38;100.00
13420;BME280;6781;58.440;15.470;2024-03-02T07:00:11;106720.75;;;3.37;100.00
13420;BME280;6781;58.440;15.470;2024-03-02T07:05:58;106762.84;;;3.41;100.00
13420;BME280;6781;58.440;15.470;2024-03-02T07:08:28;106724.03;;;3.18;100.00
13420;BME280;6781;58.440;15.470;2024-03-02T07:10:55;106769.16;;;3.47;100.00
13420;BME280;6781;58.440;15.470;2024-03-02T07:13:22;106766.66;;;3.49;100.00
13420;BME280;6781;58.440;15.470;2024-03-02T07:16:06;106769.47;;;3.53;100.00
13420;BME280;6781;58.440;15.470;2024-03-02T07:18:59;106793.22;;;3.49;100.00
13420;BME280;6781;58.440;15.470;2024-03-02T07:24:45;106820.84;;;3.53;100.00
13420;BME280;6781;58.440;15.470;2024-03-02T07:27:14;106804.47;;;3.51;100.00
13420;BME280;6781;58.440;15.470;2024-03-02T07:29:41;106805.59;;;3.56;100.00
13420;BME280;6781;58.440;15.470;2024-03-02T07:32:08;106820.59;;;3.65;100.00
13420;BME280;6781;58.440;15.470;2024-03-02T07:34:35;106812.06;;;3.66;100.00
13420;BME280;6781;58.440;15.470;2024-03-02T07:37:02;106775.16;;;3.64;100.00
13420;BME280;6781;58.440;15.470;2024-03-02T07:39:29;106755.25;;;3.60;100.00
13420;BME280;6781;58.440;15.470;2024-03-02T07:41:58;106751.06;;;3.62;100.00
13420;BME280;6781;58.440;15.470;2024-03-02T07:44:26;106750.28;;;3.63;100.00
13420;BME280;6781;58.440;15.470;2024-03-02T07:46:53;106745.13;;;3.63;100.00
13420;BME280;6781;58.440;15.470;2024-03-02T07:49:20;106736.47;;;3.61;100.00
13420;BME280;6781;58.440;15.470;2024-03-02T07:51:47;106725.25;;;3.59;100.00
13420;BME280;6781;58.440;15.470;2024-03-02T07:54:15;106714.00;;;3.57;100.00
13420;BME280;6781;58.440;15.470;2024-03-02T07:56:42;106710.72;;;3.59;100.00
13420;BME280;6781;58.440;15.470;2024-03-02T07:59:10;106703.88;;;3.60;100.00
13420;BME280;6781;58.440;15.470;2024-03-02T08:01:37;106707.25;;;3.59;100.00
13420;BME280;6781;58.440;15.470;2024-03-02T08:04:06;106693.31;;;3.54;100.00
13420;BME280;6781;58.440;15.470;2024-03-02T08:06:41;106705.66;;;3.61;100.00
13420;BME280;6781;58.440;15.470;2024-03-02T08:09:08;106704.03;;;3.63;100.00
13420;BME280;6781;58.440;15.470;2024-03-02T08:11:35;106695.53;;;3.64;100.00
13420;BME280;6781;58.440;15.470;2024-03-02T08:14:04;106693.91;;;3.66;100.00
13420;BME280;6781;58.440;15.470;2024-03-02T08:16:32;106700.53;;;3.79;100.00
13420;BME280;6781;58.440;15.470;2024-03-02T08:19:01;106688.94;;;3.69;100.00
13420;BME280;6781;58.440;15.470;2024-03-02T08:21:28;106675.13;;;3.67;100.00
13420;BME280;6781;58.440;15.470;2024-03-02T08:24:00;106670.00;;;3.67;100.00
13420;BME280;6781;58.440;15.470;2024-03-02T08:26:28;106667.44;;;3.67;100.00
13420;BME280;6781;58.440;15.470;2024-03-02T08:28:57;106664.06;;;3.68;100.00
13420;BME280;6781;58.440;15.470;2024-03-02T08:31:26;106660.16;;;3.76;100.00
13420;BME280;6781;58.440;15.470;2024-03-02T08:33:56;106651.66;;;3.77;100.00
13420;BME280;6781;58.440;15.470;2024-03-02T08:36:24;106664.28;;;3.90;100.00
13420;BME280;6781;58.440;15.470;2024-03-02T08:38:51;106643.44;;;3.84;100.00
13420;BME280;6781;58.440;15.470;2024-03-02T08:41:17;106648.94;;;3.92;100.00
13420;BME280;6781;58.440;15.470;2024-03-02T08:43:45;106642.91;;;3.91;100.00
13420;BME280;6781;58.440;15.470;2024-03-02T08:46:13;106637.13;;;3.96;100.00
13420;BME280;6781;58.440;15.470;2024-03-02T08:48:40;106633.72;;;3.97;100.00
13420;BME280;6781;58.440;15.470;2024-03-02T08:51:09;106614.78;;;3.95;100.00
13420;BME280;6781;58.440;15.470;2024-03-02T08:53:36;106621.25;;;4.04;100.00
13420;BME280;6781;58.440;15.470;2024-03-02T08:56:04;106632.84;;;4.14;100.00
13420;BME280;6781;58.440;15.470;2024-03-02T08:58:32;106632.03;;;4.15;100.00
13420;BME280;6781;58.440;15.470;2024-03-02T09:00:59;106598.19;;;4.06;100.00
13420;BME280;6781;58.440;15.470;2024-03-02T09:03:26;106601.09;;;4.13;100.00
13420;BME280;6781;58.440;15.470;2024-03-02T09:05:52;106582.09;;;4.10;100.00
13420;BME280;6781;58.440;15.470;2024-03-02T09:08:21;106576.00;;;4.08;100.00
13420;BME280;6781;58.440;15.470;2024-03-02T09:10:48;106572.91;;;4.15;100.00
13420;BME280;6781;58.440;15.470;2024-03-02T09:13:16;106571.28;;;4.17;100.00
13420;BME280;6781;58.440;15.470;2024-03-02T09:15:43;106563.63;;;4.18;100.00
13420;BME280;6781;58.440;15.470;2024-03-02T09:18:11;106549.75;;;4.15;100.00
13420;BME280;6781;58.440;15.470;2024-03-02T09:20:38;106544.84;;;4.19;100.00
13420;BME280;6781;58.440;15.470;2024-03-02T09:23:05;106504.91;;;4.08;100.00
13420;BME280;6781;58.440;15.470;2024-03-02T09:25:33;106523.38;;;4.19;100.00
13420;BME280;6781;58.440;15.470;2024-03-02T09:28:01;106519.13;;;4.19;100.00
13420;BME280;6781;58.440;15.470;2024-03-02T09:30:28;106501.81;;;4.15;100.00
13420;BME280;6781;58.440;15.470;2024-03-02T09:32:55;106497.69;;;4.19;100.00
13420;BME280;6781;58.440;15.470;2024-03-02T09:35:21;106469.94;;;4.12;100.00
13420;BME280;6781;58.440;15.470;2024-03-02T09:37:49;106470.22;;;4.18;100.00
13420;BME280;6781;58.440;15.470;2024-03-02T09:40:16;106447.69;;;4.12;100.00
13420;BME280;6781;58.440;15.470;2024-03-02T09:42:45;106461.94;;;4.25;100.00
13420;BME280;6781;58.440;15.470;2024-03-02T09:45:17;106473.56;;;4.36;100.00
13420;BME280;6781;58.440;15.470;2024-03-02T09:47:45;106442.94;;;4.21;100.00
13420;BME280;6781;58.440;15.470;2024-03-02T09:50:14;106417.84;;;4.16;100.00
13420;BME280;6781;58.440;15.470;2024-03-02T09:52:41;106395.47;;;4.13;100.00
13420;BME280;6781;58.440;15.470;2024-03-02T09:55:09;106411.47;;;4.27;100.00
13420;BME280;6781;58.440;15.470;2024-03-02T09:57:35;106393.97;;;4.18;100.00
13420;BME280;6781;58.440;15.470;2024-03-02T10:00:06;106374.97;;;4.15;100.00
13420;BME280;6781;58.440;15.470;2024-03-02T10:02:33;106374.97;;;4.15;100.00
13420;BME280;6781;58.440;15.470;2024-03-02T10:05:00;106371.78;;;4.20;100.00
13420;BME280;6781;58.440;15.470;2024-03-02T10:07:29;106357.91;;;4.17;100.00
13420;BME280;6781;58.440;15.470;2024-03-02T10:09:56;106332.03;;;4.12;100.00
13420;BME280;6781;58.440;15.470;2024-03-02T10:12:24;106344.50;;;4.24;100.00
13420;BME280;6781;58.440;15.470;2024-03-02T10:14:51;106309.00;;;4.15;100.00
13420;BME280;6781;58.440;15.470;2024-03-02T10:17:32;106328.25;;;4.25;100.00
13420;BME280;6781;58.440;15.470;2024-03-02T10:19:59;106326.50;;;4.24;100.00
13420;BME280;6781;58.440;15.470;2024-03-02T10:22:46;106323.00;;;4.22;100.00
13420;BME280;6781;58.440;15.470;2024-03-02T10:25:27;106332.22;;;4.38;100.00
13420;BME280;6781;58.440;15.470;2024-03-02T10:27:56;106324.38;;;4.35;100.00
13420;BME280;6781;58.440;15.470;2024-03-02T10:30:23;106298.22;;;4.24;100.00
13420;BME280;6781;58.440;15.470;2024-03-02T10:32:51;106299.47;;;4.34;100.00
13420;BME280;6781;58.440;15.470;2024-03-02T10:35:19;106303.28;;;4.43;100.00
13420;BME280;6781;58.440;15.470;2024-03-02T10:37:47;106288.56;;;4.39;100.00
13420;BME280;6781;58.440;15.470;2024-03-02T10:40:13;106296.53;;;4.45;100.00
13420;BME280;6781;58.440;15.470;2024-03-02T10:42:41;106300.41;;;4.56;100.00
13420;BME280;6781;58.440;15.470;2024-03-02T10:45:08;106275.13;;;4.46;100.00
13420;BME280;6781;58.440;15.470;2024-03-02T10:47:36;106269.28;;;4.50;100.00
13420;BME280;6781;58.440;15.470;2024-03-02T10:50:06;106283.44;;;4.62;100.00
13420;BME280;6781;58.440;15.470;2024-03-02T10:52:34;106253.75;;;4.47;100.00
13420;BME280;6781;58.440;15.470;2024-03-02T10:55:01;106257.38;;;4.52;100.00
13420;BME280;6781;58.440;15.470;2024-03-02T10:57:32;106267.00;;;4.58;100.00
13420;BME280;6781;58.440;15.470;2024-03-02T11:00:01;106258.59;;;4.62;100.00
13420;BME280;6781;58.440;15.470;2024-03-02T11:02:29;106248.19;;;4.59;100.00
13420;BME280;6781;58.440;15.470;2024-03-02T11:04:57;106231.75;;;4.55;100.00
13420;BME280;6781;58.440;15.470;2024-03-02T11:07:28;106215.28;;;4.50;100.00
13420;BME280;6781;58.440;15.470;2024-03-02T11:09:56;106212.59;;;4.47;100.00
13420;BME280;6781;58.440;15.470;2024-03-02T11:12:43;106223.00;;;4.50;100.00
13420;BME280;6781;58.440;15.470;2024-03-02T11:15:17;106213.69;;;4.54;100.00
13420;BME280;6781;58.440;15.470;2024-03-02T11:17:47;106207.56;;;4.50;100.00
13420;BME280;6781;58.440;15.470;2024-03-02T11:20:14;106189.72;;;4.55;100.00
13420;BME280;6781;58.440;15.470;2024-03-02T11:22:57;106187.91;;;4.52;100.00
13420;BME280;6781;58.440;15.470;2024-03-02T11:25:24;106168.06;;;4.48;100.00
13420;BME280;6781;58.440;15.470;2024-03-02T11:28:05;106163.09;;;4.53;100.00
13420;BME280;6781;58.440;15.470;2024-03-02T11:30:49;106178.84;;;4.62;100.00
13420;BME280;6781;58.440;15.470;2024-03-02T11:33:16;106144.31;;;4.55;100.00
13420;BME280;6781;58.440;15.470;2024-03-02T11:35:49;106135.66;;;4.53;100.00
13420;BME280;6781;58.440;15.470;2024-03-02T11:38:18;106125.53;;;4.58;100.00
13420;BME280;6781;58.440;15.470;2024-03-02T11:40:45;106122.09;;;4.57;100.00
13420;BME280;6781;58.440;15.470;2024-03-02T11:43:15;106113.34;;;4.52;100.00
13420;BME280;6781;58.440;15.470;2024-03-02T11:45:42;106099.78;;;4.56;100.00
13420;BME280;6781;58.440;15.470;2024-03-02T11:48:10;106090.13;;;4.51;100.00
13420;BME280;6781;58.440;15.470;2024-03-02T11:50:40;106073.84;;;4.50;100.00
13420;BME280;6781;58.440;15.470;2024-03-02T11:53:10;106090.63;;;4.65;100.00
13420;BME280;6781;58.440;15.470;2024-03-02T11:55:40;106067.22;;;4.57;100.00
13420;BME280;6781;58.440;15.470;2024-03-02T11:58:11;106078.44;;;4.59;100.00
13420;BME280;6781;58.440;15.470;2024-03-02T12:00:39;106063.09;;;4.62;100.00
13420;BME280;6781;58.440;15.470;2024-03-02T12:03:06;106048.53;;;4.63;100.00
13420;BME280;6781;58.440;15.470;2024-03-02T12:05:34;106025.03;;;4.52;100.00
13420;BME280;6781;58.440;15.470;2024-03-02T12:08:01;106026.00;;;4.55;100.00
13420;BME280;6781;58.440;15.470;2024-03-02T12:10:29;106035.69;;;4.63;100.00
13420;BME280;6781;58.440;15.470;2024-03-02T12:12:57;106017.47;;;4.56;100.00
13420;BME280;6781;58.440;15.470;2024-03-02T12:15:25;106017.56;;;4.60;100.00
13420;BME280;6781;58.440;15.470;2024-03-02T12:17:53;106003.69;;;4.54;100.00
13420;BME280;6781;58.440;15.470;2024-03-02T12:20:20;106008.00;;;4.55;100.00
13420;BME280;6781;58.440;15.470;2024-03-02T12:22:48;106008.16;;;4.60;100.00
13420;BME280;6781;58.440;15.470;2024-03-02T12:25:15;105964.84;;;4.47;100.00
13420;BME280;6781;58.440;15.470;2024-03-02T12:27:42;105963.56;;;4.60;100.00
13420;BME280;6781;58.440;15.470;2024-03-02T12:30:12;105939.34;;;4.53;100.00
13420;BME280;6781;58.440;15.470;2024-03-02T12:32:40;105935.16;;;4.56;100.00
13420;BME280;6781;58.440;15.470;2024-03-02T12:35:07;105935.38;;;4.63;100.00
13420;BME280;6781;58.440;15.470;2024-03-02T12:37:41;105930.22;;;4.63;100.00
13420;BME280;6781;58.440;15.470;2024-03-02T12:40:11;105923.63;;;4.71;100.00
13420;BME280;6781;58.440;15.470;2024-03-02T12:42:38;105903.63;;;4.62;100.00
13420;BME280;6781;58.440;15.470;2024-03-02T12:46:10;105897.72;;;4.65;100.00
13420;BME280;6781;58.440;15.470;2024-03-02T12:48:09;105906.88;;;4.56;100.00
13420;BME280;6781;58.440;15.470;2024-03-02T12:50:35;105905.19;;;4.57;100.00
13420;BME280;6781;58.440;15.470;2024-03-02T12:53:02;105889.59;;;4.52;100.00
13420;BME280;6781;58.440;15.470;2024-03-02T12:55:29;105890.63;;;4.57;100.00
13420;BME280;6781;58.440;15.470;2024-03-02T12:57:56;105885.56;;;4.61;100.00
13420;BME280;6781;58.440;15.470;2024-03-02T13:03:09;105879.72;;;4.65;100.00
13420;BME280;6781;58.440;15.470;2024-03-02T13:05:39;105874.56;;;4.65;100.00
13420;BME280;6781;58.440;15.470;2024-03-02T13:08:06;105852.00;;;4.56;100.00
13420;BME280;6781;58.440;15.470;2024-03-02T13:10:33;105863.41;;;4.64;100.00